You are not logged in, Click here to log in
機場資訊:LFPG Welcome to Taiwan Airways 台灣虛擬航空
ICAO: LFPG Country: 法國首都巴黎
Latitude: 49.0097 Longitude: 2.54778
Total Arrivals: 18 Total Departures: 18
Latest Arrival: CX2067 (EDDF-LFPG)KE. CHIH-HAO Latest Departure: CX2067 (LFPG-EGLL)KE. CHIH-HAO
Scenery:
METAR : LFPG 141800Z 23027KT 9999 SCT048 FEW050CB BKN100 19/11 Q1007 RETS TEMPO 22015G30KT 4000 -TSRA SCT030CB

巴黎夏爾·戴高樂機場CDG